Time;durP1;ratioP1;P1;durP2;ratioP2;P2;SDS_P1;SDS_P2;PMS_P1;PMS_P2;Temp;Humidity;BMP_temperature;BMP_pressure;BME280_temperature;BME280_humidity;BME280_pressure;Samples;Min_cycle;Max_cycle;Signal;HPM_P1;HPM_P2
2023/04/09 00:00:46;;;;;;;;;;;;;;;;;;5087263;28;19916;-58
2023/04/09 00:03:12;;;;;;;;;;;;;;;;;;5094904;28;19923;-60
2023/04/09 00:05:39;;;;;;;;;;;;;;;;;;5094459;28;19916;-61
2023/04/09 00:08:04;;;;;;;;;;;;;;;;;;5075327;28;19909;-60
2023/04/09 00:10:30;;;;;;;;;;;;;;;;;;5077674;28;20269;-60
2023/04/09 00:12:56;;;;;;;;;;;;;;;;;;5085510;28;20015;-60
2023/04/09 00:15:22;;;;;;;;;;;;;;;;;;5093549;28;20008;-60
2023/04/09 00:17:48;;;;;;;;;;;;;;;;;;5087863;28;19916;-58
2023/04/09 00:20:14;;;;;;;;;;;;;;;;;;5089914;28;19923;-60
2023/04/09 00:22:40;;;;;;;;;;;;;;;;;;5086600;28;19913;-60
2023/04/09 00:25:06;;;;;;;;;;;;;;;;;;5081615;28;19918;-60
2023/04/09 00:27:32;;;;;;;;;;;;;;;;;;5088669;28;20017;-60
2023/04/09 00:29:58;;;;;;;;;;;;;;;;;;5091323;28;19918;-60
2023/04/09 00:32:23;;;;;;;;;;;;;;;;;;5087755;28;19920;-61
2023/04/09 00:34:50;;;;;;;;;;;;;;;;;;5093227;28;19948;-61
2023/04/09 00:37:15;;;;;;;;;;;;;;;;;;5094479;28;20001;-60
2023/04/09 00:39:41;;;;;;;;;;;;;;;;;;5092823;28;20336;-59
2023/04/09 00:42:07;;;;;;;;;;;;;;;;;;5092275;28;19926;-61
2023/04/09 00:44:33;;;;;;;;;;;;;;;;;;5092913;28;19965;-60
2023/04/09 00:46:59;;;;;;;;;;;;;;;;;;5094778;28;19964;-61
2023/04/09 00:49:25;;;;;;;;;;;;;;;;;;5093035;28;19912;-61
2023/04/09 00:51:51;;;;;;;;;;;;;;;;;;5091925;28;19955;-60
2023/04/09 00:54:17;;;;;;;;;;;;;;;;;;5092191;28;19920;-60
2023/04/09 00:56:43;;;;;;;;;;;;;;;;;;5094361;28;19961;-60
2023/04/09 00:59:09;;;;;;;;;;;;;;;;;;5086130;28;19952;-60
2023/04/09 01:01:35;;;;;;;;;;;;;;;;;;5081562;28;20350;-60
2023/04/09 01:04:01;;;;;;;;;;;;;;;;;;5079290;28;19937;-61
2023/04/09 01:06:27;;;;;;;;;;;;;;;;;;5093828;28;20268;-60
2023/04/09 01:08:52;;;;;;;;;;;;;;;;;;5091651;28;19916;-61
2023/04/09 01:11:18;;;;;;;;;;;;;;;;;;5077807;28;19924;-60
2023/04/09 01:13:45;;;;;;;;;;;;;;;;;;5090786;28;20371;-61
2023/04/09 01:16:11;;;;;;;;;;;;;;;;;;5080895;28;19995;-58
2023/04/09 01:18:36;;;;;;;;;;;;;;;;;;5088754;28;20002;-59
2023/04/09 01:21:02;;;;;;;;;;;;;;;;;;5089688;28;19917;-60
2023/04/09 01:23:28;;;;;;;;;;;;;;;;;;5092419;28;19982;-61
2023/04/09 01:25:54;;;;;;;;;;;;;;;;;;5090665;28;19955;-59
2023/04/09 01:28:20;;;;;;;;;;;;;;;;;;5092842;28;19999;-58
2023/04/09 01:30:46;;;;;;;;;;;;;;;;;;5084509;28;19920;-59
2023/04/09 01:33:12;;;;;;;;;;;;;;;;;;5081344;28;20398;-59
2023/04/09 01:35:38;;;;;;;;;;;;;;;;;;5084210;28;19922;-59
2023/04/09 01:38:04;;;;;;;;;;;;;;;;;;5078268;28;19912;-59
2023/04/09 01:40:30;;;;;;;;;;;;;;;;;;5088284;28;20065;-59
2023/04/09 01:42:56;;;;;;;;;;;;;;;;;;5091068;28;20382;-58
2023/04/09 01:45:21;;;;;;;;;;;;;;;;;;5080086;28;19923;-58
2023/04/09 01:47:47;;;;;;;;;;;;;;;;;;5088530;28;19912;-59
2023/04/09 01:50:13;;;;;;;;;;;;;;;;;;5091575;28;20360;-59
2023/04/09 01:52:39;;;;;;;;;;;;;;;;;;5091045;28;19916;-59
2023/04/09 01:55:05;;;;;;;;;;;;;;;;;;5092411;28;20414;-59
2023/04/09 01:57:31;;;;;;;;;;;;;;;;;;5088469;28;20308;-59
2023/04/09 01:59:57;;;;;;;;;;;;;;;;;;5079180;28;19999;-58
2023/04/09 02:02:23;;;;;;;;;;;;;;;;;;5088351;28;19954;-59
2023/04/09 02:04:49;;;;;;;;;;;;;;;;;;5092650;28;20356;-59
2023/04/09 02:07:15;;;;;;;;;;;;;;;;;;5087904;28;19965;-59
2023/04/09 02:09:41;;;;;;;;;;;;;;;;;;5090148;28;19924;-59
2023/04/09 02:12:06;;;;;;;;;;;;;;;;;;5084020;28;19948;-59
2023/04/09 02:14:32;;;;;;;;;;;;;;;;;;5084146;28;19922;-59
2023/04/09 02:16:58;;;;;;;;;;;;;;;;;;5089819;28;20360;-59
2023/04/09 02:19:24;;;;;;;;;;;;;;;;;;5084015;28;20372;-59
2023/04/09 02:21:50;;;;;;;;;;;;;;;;;;5086884;28;19913;-59
2023/04/09 02:24:16;;;;;;;;;;;;;;;;;;5082487;28;19934;-59
2023/04/09 02:26:42;;;;;;;;;;;;;;;;;;5085734;28;19912;-59
2023/04/09 02:29:08;;;;;;;;;;;;;;;;;;5090652;28;20395;-59
2023/04/09 02:31:34;;;;;;;;;;;;;;;;;;5089166;28;20009;-58
2023/04/09 02:34:00;;;;;;;;;;;;;;;;;;5082630;28;20376;-59
2023/04/09 02:36:26;;;;;;;;;;;;;;;;;;5079315;28;19951;-59
2023/04/09 02:38:52;;;;;;;;;;;;;;;;;;5088630;28;19916;-59
2023/04/09 02:41:18;;;;;;;;;;;;;;;;;;5078360;28;19922;-59
2023/04/09 02:43:44;;;;;;;;;;;;;;;;;;5091627;28;20351;-59
2023/04/09 02:46:10;;;;;;;;;;;;;;;;;;5091144;28;20355;-58
2023/04/09 02:48:36;;;;;;;;;;;;;;;;;;5090569;28;19944;-59
2023/04/09 02:51:02;;;;;;;;;;;;;;;;;;5087395;28;19916;-59
2023/04/09 02:53:28;;;;;;;;;;;;;;;;;;5081314;28;19987;-59
2023/04/09 02:55:54;;;;;;;;;;;;;;;;;;5092753;28;19912;-59
2023/04/09 02:58:20;;;;;;;;;;;;;;;;;;5081832;28;20283;-59
2023/04/09 03:00:46;;;;;;;;;;;;;;;;;;5089819;28;19912;-59
2023/04/09 03:03:12;;;;;;;;;;;;;;;;;;5075003;28;20024;-59
2023/04/09 03:05:38;;;;;;;;;;;;;;;;;;5085700;28;19976;-59
2023/04/09 03:08:03;;;;;;;;;;;;;;;;;;5085922;28;19962;-59
2023/04/09 03:10:29;;;;;;;;;;;;;;;;;;5090795;28;20006;-59
2023/04/09 03:12:55;;;;;;;;;;;;;;;;;;5077768;28;19916;-59
2023/04/09 03:15:21;;;;;;;;;;;;;;;;;;5075098;28;19955;-59
2023/04/09 03:17:47;;;;;;;;;;;;;;;;;;5085621;28;20364;-59
2023/04/09 03:20:13;;;;;;;;;;;;;;;;;;5090671;28;20010;-59
2023/04/09 03:22:39;;;;;;;;;;;;;;;;;;5082885;28;19919;-59
2023/04/09 03:25:05;;;;;;;;;;;;;;;;;;5089349;28;20364;-59
2023/04/09 03:27:31;;;;;;;;;;;;;;;;;;5095560;28;19916;-59
2023/04/09 03:29:57;;;;;;;;;;;;;;;;;;5092204;28;19969;-59
2023/04/09 03:32:23;;;;;;;;;;;;;;;;;;5093182;28;19932;-59
2023/04/09 03:34:49;;;;;;;;;;;;;;;;;;5085342;28;19953;-59
2023/04/09 03:37:15;;;;;;;;;;;;;;;;;;5094131;28;19962;-59
2023/04/09 03:39:40;;;;;;;;;;;;;;;;;;5089161;28;19979;-59
2023/04/09 03:42:06;;;;;;;;;;;;;;;;;;5077750;28;19952;-59
2023/04/09 03:44:32;;;;;;;;;;;;;;;;;;5078383;28;19924;-59
2023/04/09 03:46:58;;;;;;;;;;;;;;;;;;5095450;28;19924;-58
2023/04/09 03:49:24;;;;;;;;;;;;;;;;;;5094376;28;19912;-59
2023/04/09 03:51:50;;;;;;;;;;;;;;;;;;5082834;28;19920;-59
2023/04/09 03:54:16;;;;;;;;;;;;;;;;;;5085753;28;19964;-58
2023/04/09 03:56:42;;;;;;;;;;;;;;;;;;5092974;28;19916;-59
2023/04/09 03:59:08;;;;;;;;;;;;;;;;;;5091860;28;20398;-59
2023/04/09 04:01:34;;;;;;;;;;;;;;;;;;5087878;28;19989;-59
2023/04/09 04:04:00;;;;;;;;;;;;;;;;;;5073160;28;19916;-59
2023/04/09 04:06:26;;;;;;;;;;;;;;;;;;5080194;28;19922;-59
2023/04/09 04:08:52;;;;;;;;;;;;;;;;;;5082475;28;19923;-58
2023/04/09 04:11:18;;;;;;;;;;;;;;;;;;5083677;28;19916;-58
2023/04/09 04:13:44;;;;;;;;;;;;;;;;;;5085838;28;19951;-59
2023/04/09 04:16:10;;;;;;;;;;;;;;;;;;5093687;28;20006;-59
2023/04/09 04:18:36;;;;;;;;;;;;;;;;;;5086725;28;19915;-59
2023/04/09 04:21:02;;;;;;;;;;;;;;;;;;5091132;28;19916;-59
2023/04/09 04:23:27;;;;;;;;;;;;;;;;;;5092797;28;19908;-59
2023/04/09 04:25:55;;;;;;;;;;;;;;;;;;5084411;28;19916;-59
2023/04/09 04:28:21;;;;;;;;;;;;;;;;;;5093676;28;19962;-59
2023/04/09 04:30:47;;;;;;;;;;;;;;;;;;5081893;28;19975;-59
2023/04/09 04:33:13;;;;;;;;;;;;;;;;;;5086799;28;20020;-59
2023/04/09 04:35:39;;;;;;;;;;;;;;;;;;5084469;28;19927;-59
2023/04/09 04:38:05;;;;;;;;;;;;;;;;;;5094054;28;20341;-59
2023/04/09 04:40:31;;;;;;;;;;;;;;;;;;5092904;28;20015;-59
2023/04/09 04:42:57;;;;;;;;;;;;;;;;;;5073663;28;19916;-59
2023/04/09 04:45:23;;;;;;;;;;;;;;;;;;5092647;28;19955;-59
2023/04/09 04:47:49;;;;;;;;;;;;;;;;;;5084995;28;19961;-59
2023/04/09 04:50:14;;;;;;;;;;;;;;;;;;5084804;28;19918;-59
2023/04/09 04:52:40;;;;;;;;;;;;;;;;;;5074282;28;19952;-58
2023/04/09 04:55:06;;;;;;;;;;;;;;;;;;5092633;28;19940;-59
2023/04/09 04:57:32;;;;;;;;;;;;;;;;;;5091139;28;19920;-59
2023/04/09 04:59:58;;;;;;;;;;;;;;;;;;5084377;28;19954;-59
2023/04/09 05:02:24;;;;;;;;;;;;;;;;;;5085061;28;20057;-59
2023/04/09 05:04:50;;;;;;;;;;;;;;;;;;5080150;28;20398;-59
2023/04/09 05:07:16;;;;;;;;;;;;;;;;;;5092883;28;19948;-58
2023/04/09 05:09:43;;;;;;;;;;;;;;;;;;5088767;28;19928;-59
2023/04/09 05:12:09;;;;;;;;;;;;;;;;;;5079978;28;19924;-59
2023/04/09 05:14:35;;;;;;;;;;;;;;;;;;5090645;28;19912;-58
2023/04/09 05:17:01;;;;;;;;;;;;;;;;;;5072592;28;19946;-59
2023/04/09 05:19:27;;;;;;;;;;;;;;;;;;5089477;28;19962;-59
2023/04/09 05:21:52;;;;;;;;;;;;;;;;;;5089512;28;19920;-59
2023/04/09 05:24:18;;;;;;;;;;;;;;;;;;5080476;28;19924;-59
2023/04/09 05:26:44;;;;;;;;;;;;;;;;;;5092033;28;20413;-58
2023/04/09 05:29:10;;;;;;;;;;;;;;;;;;5083752;28;20025;-58
2023/04/09 05:31:36;;;;;;;;;;;;;;;;;;5086345;28;20008;-60
2023/04/09 05:34:02;;;;;;;;;;;;;;;;;;5083189;28;19922;-59
2023/04/09 05:36:28;;;;;;;;;;;;;;;;;;5086724;28;20367;-59
2023/04/09 05:38:54;;;;;;;;;;;;;;;;;;5079528;28;19951;-59
2023/04/09 05:41:20;;;;;;;;;;;;;;;;;;5091879;28;19918;-58
2023/04/09 05:43:46;;;;;;;;;;;;;;;;;;5086899;28;19995;-61
2023/04/09 05:46:12;;;;;;;;;;;;;;;;;;5088605;28;19915;-59
2023/04/09 05:48:38;;;;;;;;;;;;;;;;;;5084128;28;19989;-59
2023/04/09 05:51:04;;;;;;;;;;;;;;;;;;5081061;28;20022;-59
2023/04/09 05:53:30;;;;;;;;;;;;;;;;;;5083729;28;19960;-58
2023/04/09 05:55:56;;;;;;;;;;;;;;;;;;5084600;28;19912;-59
2023/04/09 05:58:22;;;;;;;;;;;;;;;;;;5087594;28;19972;-59
2023/04/09 06:00:50;;;;;;;;;;;;;;;;;;5089398;28;19913;-59
2023/04/09 06:03:16;;;;;;;;;;;;;;;;;;5080962;28;19916;-59
2023/04/09 06:05:42;;;;;;;;;;;;;;;;;;5080897;28;19912;-59
2023/04/09 06:08:08;;;;;;;;;;;;;;;;;;5089626;28;19943;-59
2023/04/09 06:10:33;;;;;;;;;;;;;;;;;;5087300;28;19968;-59
2023/04/09 06:12:59;;;;;;;;;;;;;;;;;;5089217;28;19934;-59
2023/04/09 06:15:25;;;;;;;;;;;;;;;;;;5084771;28;19957;-59
2023/04/09 06:17:51;;;;;;;;;;;;;;;;;;5085223;28;19912;-59
2023/04/09 06:20:17;;;;;;;;;;;;;;;;;;5086393;28;19914;-59
2023/04/09 06:22:43;;;;;;;;;;;;;;;;;;5080169;28;19923;-59
2023/04/09 06:25:09;;;;;;;;;;;;;;;;;;5077895;28;20304;-59
2023/04/09 06:27:35;;;;;;;;;;;;;;;;;;5089819;28;19916;-60
2023/04/09 06:30:01;;;;;;;;;;;;;;;;;;5089018;28;20275;-59
2023/04/09 06:32:27;;;;;;;;;;;;;;;;;;5086948;28;19912;-59
2023/04/09 06:34:53;;;;;;;;;;;;;;;;;;5078235;28;19959;-60
2023/04/09 06:37:18;;;;;;;;;;;;;;;;;;5078377;28;19943;-59
2023/04/09 06:39:45;;;;;;;;;;;;;;;;;;5070556;28;20018;-59
2023/04/09 06:42:11;;;;;;;;;;;;;;;;;;5081670;28;19914;-59
2023/04/09 06:44:36;;;;;;;;;;;;;;;;;;5074035;28;20331;-59
2023/04/09 06:47:02;;;;;;;;;;;;;;;;;;5080871;28;19908;-59
2023/04/09 06:49:28;;;;;;;;;;;;;;;;;;5084639;28;19974;-59
2023/04/09 06:51:55;;;;;;;;;;;;;;;;;;5070721;28;19952;-59
2023/04/09 06:54:21;;;;;;;;;;;;;;;;;;5087780;28;20348;-59
2023/04/09 06:56:46;;;;;;;;;;;;;;;;;;5082710;28;19908;-59
2023/04/09 06:59:12;;;;;;;;;;;;;;;;;;5076818;28;19999;-59
2023/04/09 07:01:39;;;;;;;;;;;;;;;;;;5081210;28;19916;-59
2023/04/09 07:04:05;;;;;;;;;;;;;;;;;;5089573;28;19959;-59
2023/04/09 07:06:31;;;;;;;;;;;;;;;;;;5089117;28;20012;-59
2023/04/09 07:08:57;;;;;;;;;;;;;;;;;;5013831;28;1665977;-59
2023/04/09 07:11:23;;;;;;;;;;;;;;;;;;5077289;28;19920;-59
2023/04/09 07:13:49;;;;;;;;;;;;;;;;;;5087549;28;20352;-59
2023/04/09 07:16:14;;;;;;;;;;;;;;;;;;5075911;28;20015;-58
2023/04/09 07:18:40;;;;;;;;;;;;;;;;;;5082704;28;19948;-59
2023/04/09 07:21:06;;;;;;;;;;;;;;;;;;5077102;28;19920;-59
2023/04/09 07:23:32;;;;;;;;;;;;;;;;;;5081311;28;19980;-59
2023/04/09 07:25:58;;;;;;;;;;;;;;;;;;5085508;28;20403;-59
2023/04/09 07:28:24;;;;;;;;;;;;;;;;;;5088127;28;20010;-59
2023/04/09 07:30:50;;;;;;;;;;;;;;;;;;5072256;28;19916;-59
2023/04/09 07:33:16;;;;;;;;;;;;;;;;;;5080881;28;21414;-59
2023/04/09 07:35:42;;;;;;;;;;;;;;;;;;5075733;28;20003;-59
2023/04/09 07:38:08;;;;;;;;;;;;;;;;;;5079327;28;19999;-59
2023/04/09 07:40:35;;;;;;;;;;;;;;;;;;5078736;28;19955;-59
2023/04/09 07:43:01;;;;;;;;;;;;;;;;;;5081196;28;20322;-59
2023/04/09 07:45:27;;;;;;;;;;;;;;;;;;5084446;28;19920;-59
2023/04/09 07:47:53;;;;;;;;;;;;;;;;;;5088018;28;19970;-59
2023/04/09 07:50:19;;;;;;;;;;;;;;;;;;5081395;28;20365;-59
2023/04/09 07:52:45;;;;;;;;;;;;;;;;;;5079023;28;19947;-59
2023/04/09 07:55:11;;;;;;;;;;;;;;;;;;5082663;28;19962;-59
2023/04/09 07:57:37;;;;;;;;;;;;;;;;;;5085844;28;19977;-59
2023/04/09 08:00:03;;;;;;;;;;;;;;;;;;5076282;28;19923;-59
2023/04/09 08:02:29;;;;;;;;;;;;;;;;;;5081112;28;19916;-60
2023/04/09 08:04:55;;;;;;;;;;;;;;;;;;5078296;28;19958;-60
2023/04/09 08:07:21;;;;;;;;;;;;;;;;;;5086194;28;19919;-60
2023/04/09 08:09:47;;;;;;;;;;;;;;;;;;5083242;28;19968;-60
2023/04/09 08:12:13;;;;;;;;;;;;;;;;;;5080379;28;19969;-59
2023/04/09 08:14:40;;;;;;;;;;;;;;;;;;5075521;28;19965;-59
2023/04/09 08:17:06;;;;;;;;;;;;;;;;;;5091883;28;19922;-59
2023/04/09 08:19:31;;;;;;;;;;;;;;;;;;5093428;28;19912;-59
2023/04/09 08:21:57;;;;;;;;;;;;;;;;;;5090396;28;19923;-59
2023/04/09 08:24:23;;;;;;;;;;;;;;;;;;5089152;28;19951;-59
2023/04/09 08:26:50;;;;;;;;;;;;;;;;;;5086111;28;19967;-59
2023/04/09 08:29:16;;;;;;;;;;;;;;;;;;5074726;28;19916;-59
2023/04/09 08:31:41;;;;;;;;;;;;;;;;;;5079064;28;19947;-60
2023/04/09 08:34:07;;;;;;;;;;;;;;;;;;5082843;28;19961;-60
2023/04/09 08:36:34;;;;;;;;;;;;;;;;;;5082533;28;21845;-60
2023/04/09 08:39:00;;;;;;;;;;;;;;;;;;5075057;28;20001;-60
2023/04/09 08:41:29;;;;;;;;;;;;;;;;;;5077841;28;20732;-60
2023/04/09 08:43:55;;;;;;;;;;;;;;;;;;5086696;28;19912;-60
2023/04/09 08:46:21;;;;;;;;;;;;;;;;;;5077508;28;19924;-59
2023/04/09 08:48:47;;;;;;;;;;;;;;;;;;5084980;28;19959;-60
2023/04/09 08:51:13;;;;;;;;;;;;;;;;;;5082278;28;19951;-60
2023/04/09 08:53:39;;;;;;;;;;;;;;;;;;5080354;28;19917;-60
2023/04/09 08:56:05;;;;;;;;;;;;;;;;;;5085120;28;20319;-60
2023/04/09 08:58:31;;;;;;;;;;;;;;;;;;5082383;28;19931;-60
2023/04/09 09:00:57;;;;;;;;;;;;;;;;;;5083218;28;19955;-60
2023/04/09 09:03:23;;;;;;;;;;;;;;;;;;5086634;28;19916;-60
2023/04/09 09:05:49;;;;;;;;;;;;;;;;;;5080660;28;20376;-59
2023/04/09 09:08:15;;;;;;;;;;;;;;;;;;5081139;28;19912;-60
2023/04/09 09:10:41;;;;;;;;;;;;;;;;;;5082539;28;20340;-60
2023/04/09 09:13:07;;;;;;;;;;;;;;;;;;5089402;28;19955;-60
2023/04/09 09:15:32;;;;;;;;;;;;;;;;;;5089298;28;19924;-59
2023/04/09 09:17:58;;;;;;;;;;;;;;;;;;5079863;28;19959;-60
2023/04/09 09:20:24;;;;;;;;;;;;;;;;;;5076024;28;19912;-59
2023/04/09 09:22:50;;;;;;;;;;;;;;;;;;5089916;28;20019;-60
2023/04/09 09:25:16;;;;;;;;;;;;;;;;;;5085631;28;19963;-60
2023/04/09 09:27:42;;;;;;;;;;;;;;;;;;5087196;28;20400;-60
2023/04/09 09:30:09;;;;;;;;;;;;;;;;;;5083061;28;19916;-60
2023/04/09 09:32:35;;;;;;;;;;;;;;;;;;5079955;28;19923;-60
2023/04/09 09:35:01;;;;;;;;;;;;;;;;;;5079507;28;19950;-60
2023/04/09 09:37:27;;;;;;;;;;;;;;;;;;5081847;28;20360;-60
2023/04/09 09:39:53;;;;;;;;;;;;;;;;;;5078759;28;19969;-60
2023/04/09 09:42:19;;;;;;;;;;;;;;;;;;5079141;28;19916;-60
2023/04/09 09:44:45;;;;;;;;;;;;;;;;;;5083063;28;20468;-60
2023/04/09 09:47:10;;;;;;;;;;;;;;;;;;5081210;28;20027;-60
2023/04/09 09:49:36;;;;;;;;;;;;;;;;;;5081588;28;19974;-60
2023/04/09 09:52:02;;;;;;;;;;;;;;;;;;5077913;28;19938;-60
2023/04/09 09:54:28;;;;;;;;;;;;;;;;;;5080197;28;19921;-60
2023/04/09 09:56:54;;;;;;;;;;;;;;;;;;5079903;28;19947;-60
2023/04/09 09:59:23;;;;;;;;;;;;;;;;;;5077551;28;19928;-60
2023/04/09 10:01:49;;;;;;;;;;;;;;;;;;5079649;28;19923;-60
2023/04/09 10:04:15;;;;;;;;;;;;;;;;;;5079632;28;19912;-60
2023/04/09 10:06:41;;;;;;;;;;;;;;;;;;5076676;28;19923;-59
2023/04/09 10:09:07;;;;;;;;;;;;;;;;;;5080325;28;19939;-59
2023/04/09 10:11:33;;;;;;;;;;;;;;;;;;5078859;28;19920;-59
2023/04/09 10:13:59;;;;;;;;;;;;;;;;;;5081856;28;20278;-53
2023/04/09 10:16:28;;;;;;;;;;;;;;;;;;5080284;28;20014;-56
2023/04/09 10:18:54;;;;;;;;;;;;;;;;;;5079145;28;19935;-56
2023/04/09 10:21:20;;;;;;;;;;;;;;;;;;5078572;28;20383;-56
2023/04/09 10:23:47;;;;;;;;;;;;;;;;;;5083024;28;19912;-56
2023/04/09 10:26:12;;;;;;;;;;;;;;;;;;5078537;28;19927;-56
2023/04/09 10:28:38;;;;;;;;;;;;;;;;;;5077369;28;20381;-56
2023/04/09 10:31:05;;;;;;;;;;;;;;;;;;5078528;28;19952;-56
2023/04/09 10:33:30;;;;;;;;;;;;;;;;;;5082480;28;20007;-56
2023/04/09 10:35:57;;;;;;;;;;;;;;;;;;5078740;28;20446;-57
2023/04/09 10:38:23;;;;;;;;;;;;;;;;;;5080488;28;19961;-57
2023/04/09 10:40:49;;;;;;;;;;;;;;;;;;5079511;28;19916;-57
2023/04/09 10:43:18;;;;;;;;;;;;;;;;;;5078821;28;19919;-57
2023/04/09 10:45:44;;;;;;;;;;;;;;;;;;5077609;28;19915;-58
2023/04/09 10:48:11;;;;;;;;;;;;;;;;;;5077117;28;19997;-57
2023/04/09 10:50:37;;;;;;;;;;;;;;;;;;5078395;28;19999;-58
2023/04/09 10:53:03;;;;;;;;;;;;;;;;;;5076860;28;20406;-56
2023/04/09 10:55:30;;;;;;;;;;;;;;;;;;5091173;28;20477;-57
2023/04/09 10:57:55;;;;;;;;;;;;;;;;;;5091545;28;19960;-57
2023/04/09 11:00:21;;;;;;;;;;;;;;;;;;5076767;28;20333;-56
2023/04/09 11:02:48;;;;;;;;;;;;;;;;;;5090096;28;19912;-57
2023/04/09 11:05:15;;;;;;;;;;;;;;;;;;5069077;28;20057;-57
2023/04/09 11:07:41;;;;;;;;;;;;;;;;;;5079976;28;19908;-56
2023/04/09 11:10:06;;;;;;;;;;;;;;;;;;5090770;28;20403;-55
2023/04/09 11:12:32;;;;;;;;;;;;;;;;;;5084617;28;19920;-56
2023/04/09 11:14:58;;;;;;;;;;;;;;;;;;5085967;28;19908;-56
2023/04/09 11:17:24;;;;;;;;;;;;;;;;;;5091374;28;19915;-56
2023/04/09 11:19:50;;;;;;;;;;;;;;;;;;5076759;28;20001;-57
2023/04/09 11:22:16;;;;;;;;;;;;;;;;;;5083945;28;19912;-57
2023/04/09 11:24:42;;;;;;;;;;;;;;;;;;5091323;28;19912;-57
2023/04/09 11:27:08;;;;;;;;;;;;;;;;;;5077554;28;19995;-57
2023/04/09 11:29:34;;;;;;;;;;;;;;;;;;5090905;28;20333;-56
2023/04/09 11:32:00;;;;;;;;;;;;;;;;;;5081714;28;19960;-57
2023/04/09 11:34:25;;;;;;;;;;;;;;;;;;5091278;28;19908;-57
2023/04/09 11:36:51;;;;;;;;;;;;;;;;;;5072503;28;20441;-57
2023/04/09 11:39:17;;;;;;;;;;;;;;;;;;5070277;28;19974;-57
2023/04/09 11:41:43;;;;;;;;;;;;;;;;;;5089487;28;19963;-57
2023/04/09 11:44:09;;;;;;;;;;;;;;;;;;5090817;28;19908;-58
2023/04/09 11:46:35;;;;;;;;;;;;;;;;;;5092570;28;20321;-57
2023/04/09 11:49:01;;;;;;;;;;;;;;;;;;5094275;28;19916;-58
2023/04/09 11:51:27;;;;;;;;;;;;;;;;;;5088944;28;19991;-57
2023/04/09 11:53:53;;;;;;;;;;;;;;;;;;5076539;28;20277;-57
2023/04/09 11:56:19;;;;;;;;;;;;;;;;;;5084031;28;19908;-57
2023/04/09 11:58:46;;;;;;;;;;;;;;;;;;5085001;28;19935;-57
2023/04/09 12:01:12;;;;;;;;;;;;;;;;;;5088411;28;19970;-58
2023/04/09 12:03:38;;;;;;;;;;;;;;;;;;5094684;28;19959;-57
2023/04/09 12:06:03;;;;;;;;;;;;;;;;;;5094588;28;19924;-58
2023/04/09 12:08:30;;;;;;;;;;;;;;;;;;5090419;28;20010;-57
2023/04/09 12:10:56;;;;;;;;;;;;;;;;;;5093847;28;20599;-57
2023/04/09 12:13:22;;;;;;;;;;;;;;;;;;5076066;28;19916;-58
2023/04/09 12:15:48;;;;;;;;;;;;;;;;;;5094401;28;20351;-57
2023/04/09 12:18:14;;;;;;;;;;;;;;;;;;5093765;28;19916;-58
2023/04/09 12:20:40;;;;;;;;;;;;;;;;;;5093581;28;19915;-58
2023/04/09 12:23:06;;;;;;;;;;;;;;;;;;5094378;28;19948;-58
2023/04/09 12:25:31;;;;;;;;;;;;;;;;;;5088989;28;19916;-56
2023/04/09 12:27:58;;;;;;;;;;;;;;;;;;5074515;28;19912;-56
2023/04/09 12:30:24;;;;;;;;;;;;;;;;;;5093750;28;20275;-57
2023/04/09 12:32:50;;;;;;;;;;;;;;;;;;5074780;28;19924;-58
2023/04/09 12:35:16;;;;;;;;;;;;;;;;;;5081956;28;19943;-58
2023/04/09 12:37:42;;;;;;;;;;;;;;;;;;5093383;28;19912;-58
2023/04/09 12:40:08;;;;;;;;;;;;;;;;;;5093334;28;19936;-56
2023/04/09 12:42:34;;;;;;;;;;;;;;;;;;5082966;28;20678;-58
2023/04/09 12:45:00;;;;;;;;;;;;;;;;;;5093833;28;20411;-56
2023/04/09 12:47:26;;;;;;;;;;;;;;;;;;5093891;28;20335;-56
2023/04/09 12:49:52;;;;;;;;;;;;;;;;;;5073741;28;20367;-56
2023/04/09 12:52:18;;;;;;;;;;;;;;;;;;5073957;28;19955;-56
2023/04/09 12:54:44;;;;;;;;;;;;;;;;;;5093484;28;19908;-58
2023/04/09 12:57:10;;;;;;;;;;;;;;;;;;5093662;28;19933;-56
2023/04/09 12:59:36;;;;;;;;;;;;;;;;;;5090279;28;19912;-55
2023/04/09 13:02:02;;;;;;;;;;;;;;;;;;5093109;28;19912;-56
2023/04/09 13:04:28;;;;;;;;;;;;;;;;;;5093568;28;20390;-56
2023/04/09 13:06:54;;;;;;;;;;;;;;;;;;5078214;28;20129;-56
2023/04/09 13:09:20;;;;;;;;;;;;;;;;;;5091605;28;20003;-57
2023/04/09 13:11:46;;;;;;;;;;;;;;;;;;5093011;28;20393;-56
2023/04/09 13:14:13;;;;;;;;;;;;;;;;;;5081523;28;19912;-57
2023/04/09 13:16:39;;;;;;;;;;;;;;;;;;5078634;28;19970;-56
2023/04/09 13:19:05;;;;;;;;;;;;;;;;;;5083381;28;20002;-57
2023/04/09 13:21:31;;;;;;;;;;;;;;;;;;5086100;28;19955;-55
2023/04/09 13:23:56;;;;;;;;;;;;;;;;;;5080726;28;19998;-58
2023/04/09 13:26:22;;;;;;;;;;;;;;;;;;5092987;28;19912;-56
2023/04/09 13:28:50;;;;;;;;;;;;;;;;;;5092493;28;19912;-56
2023/04/09 13:31:16;;;;;;;;;;;;;;;;;;5090675;28;19919;-58
2023/04/09 13:33:42;;;;;;;;;;;;;;;;;;5092983;28;20730;-55
2023/04/09 13:36:08;;;;;;;;;;;;;;;;;;5092843;28;19919;-57
2023/04/09 13:38:34;;;;;;;;;;;;;;;;;;5079702;28;20292;-56
2023/04/09 13:41:00;;;;;;;;;;;;;;;;;;5091613;28;19915;-55
2023/04/09 13:43:28;;;;;;;;;;;;;;;;;;5092325;28;19955;-55
2023/04/09 13:45:54;;;;;;;;;;;;;;;;;;5074067;28;19999;-56
2023/04/09 13:48:20;;;;;;;;;;;;;;;;;;5082157;28;20093;-58
2023/04/09 13:50:46;;;;;;;;;;;;;;;;;;5078147;28;19970;-55
2023/04/09 13:53:12;;;;;;;;;;;;;;;;;;5078410;28;19979;-55
2023/04/09 13:55:37;;;;;;;;;;;;;;;;;;5083304;28;19961;-56
2023/04/09 13:58:03;;;;;;;;;;;;;;;;;;5071612;28;19923;-57
2023/04/09 14:00:29;;;;;;;;;;;;;;;;;;5087638;28;19916;-56
2023/04/09 14:02:55;;;;;;;;;;;;;;;;;;5087603;28;20331;-58
2023/04/09 14:05:21;;;;;;;;;;;;;;;;;;5083122;28;19952;-58
2023/04/09 14:07:47;;;;;;;;;;;;;;;;;;5089948;28;19918;-56
2023/04/09 14:10:13;;;;;;;;;;;;;;;;;;5091651;28;19972;-56
2023/04/09 14:12:39;;;;;;;;;;;;;;;;;;5085282;28;19958;-58
2023/04/09 14:15:05;;;;;;;;;;;;;;;;;;5085008;28;19913;-56
2023/04/09 14:17:31;;;;;;;;;;;;;;;;;;5092230;28;20422;-56
2023/04/09 14:19:57;;;;;;;;;;;;;;;;;;5091732;28;19912;-58
2023/04/09 14:22:23;;;;;;;;;;;;;;;;;;5090306;28;19953;-58
2023/04/09 14:24:50;;;;;;;;;;;;;;;;;;5076639;28;19978;-59
2023/04/09 14:27:15;;;;;;;;;;;;;;;;;;5085400;28;20010;-57
2023/04/09 14:29:41;;;;;;;;;;;;;;;;;;5071476;28;20443;-59
2023/04/09 14:32:07;;;;;;;;;;;;;;;;;;5091283;28;19915;-57
2023/04/09 14:34:33;;;;;;;;;;;;;;;;;;5078806;28;20335;-58
2023/04/09 14:36:59;;;;;;;;;;;;;;;;;;5091697;28;19954;-58
2023/04/09 14:39:25;;;;;;;;;;;;;;;;;;5091823;28;19996;-58
2023/04/09 14:41:51;;;;;;;;;;;;;;;;;;5077917;28;20283;-58
2023/04/09 14:44:17;;;;;;;;;;;;;;;;;;5083329;28;19912;-58
2023/04/09 14:46:43;;;;;;;;;;;;;;;;;;5089081;28;20011;-58
2023/04/09 14:49:09;;;;;;;;;;;;;;;;;;5079530;28;19908;-58
2023/04/09 14:51:36;;;;;;;;;;;;;;;;;;5076726;28;19996;-58
2023/04/09 14:54:01;;;;;;;;;;;;;;;;;;5090056;28;19993;-58
2023/04/09 14:56:27;;;;;;;;;;;;;;;;;;5085796;28;19956;-57
2023/04/09 14:58:53;;;;;;;;;;;;;;;;;;5074423;28;20504;-58
2023/04/09 15:01:19;;;;;;;;;;;;;;;;;;5090948;28;20018;-58
2023/04/09 15:03:45;;;;;;;;;;;;;;;;;;5083874;28;19923;-58
2023/04/09 15:06:11;;;;;;;;;;;;;;;;;;5077219;28;20417;-57
2023/04/09 15:08:37;;;;;;;;;;;;;;;;;;5073081;28;19919;-58
2023/04/09 15:11:03;;;;;;;;;;;;;;;;;;5091020;28;20155;-57
2023/04/09 15:13:29;;;;;;;;;;;;;;;;;;5080984;28;19951;-58
2023/04/09 15:15:55;;;;;;;;;;;;;;;;;;5070216;28;20390;-58
2023/04/09 15:18:21;;;;;;;;;;;;;;;;;;5086958;28;20000;-57
2023/04/09 15:20:47;;;;;;;;;;;;;;;;;;5093638;28;19914;-58
2023/04/09 15:23:13;;;;;;;;;;;;;;;;;;5092938;28;20083;-58
2023/04/09 15:25:39;;;;;;;;;;;;;;;;;;5093680;28;19955;-57
2023/04/09 15:28:05;;;;;;;;;;;;;;;;;;5095442;28;20294;-58
2023/04/09 15:30:31;;;;;;;;;;;;;;;;;;5094903;28;20299;-58
2023/04/09 15:32:57;;;;;;;;;;;;;;;;;;5094873;28;19954;-57
2023/04/09 15:35:24;;;;;;;;;;;;;;;;;;5094560;28;19965;-58
2023/04/09 15:37:49;;;;;;;;;;;;;;;;;;5085555;28;19912;-57
2023/04/09 15:40:15;;;;;;;;;;;;;;;;;;5081289;28;19995;-57
2023/04/09 15:42:41;;;;;;;;;;;;;;;;;;5091292;28;20002;-57
2023/04/09 15:45:07;;;;;;;;;;;;;;;;;;5093951;28;19966;-58
2023/04/09 15:47:33;;;;;;;;;;;;;;;;;;5094645;28;19999;-57
2023/04/09 15:49:59;;;;;;;;;;;;;;;;;;5075706;28;19913;-57
2023/04/09 15:52:25;;;;;;;;;;;;;;;;;;5090637;28;20401;-57
2023/04/09 15:54:51;;;;;;;;;;;;;;;;;;5094348;28;20393;-58
2023/04/09 15:57:17;;;;;;;;;;;;;;;;;;5076275;28;20019;-57
2023/04/09 15:59:43;;;;;;;;;;;;;;;;;;5087463;28;19916;-57
2023/04/09 16:02:09;;;;;;;;;;;;;;;;;;5084837;28;19970;-57
2023/04/09 16:04:35;;;;;;;;;;;;;;;;;;5078706;28;19913;-57
2023/04/09 16:07:02;;;;;;;;;;;;;;;;;;5092360;28;19944;-57
2023/04/09 16:09:28;;;;;;;;;;;;;;;;;;5091780;28;19924;-57
2023/04/09 16:11:54;;;;;;;;;;;;;;;;;;5092222;28;20029;-57
2023/04/09 16:14:20;;;;;;;;;;;;;;;;;;5080125;28;19920;-57
2023/04/09 16:16:48;;;;;;;;;;;;;;;;;;5078594;28;20395;-57
2023/04/09 16:19:14;;;;;;;;;;;;;;;;;;5086841;28;19946;-56
2023/04/09 16:21:44;;;;;;;;;;;;;;;;;;5077673;28;20001;-57
2023/04/09 16:24:11;;;;;;;;;;;;;;;;;;5085531;28;20383;-57
2023/04/09 16:26:37;;;;;;;;;;;;;;;;;;5085817;28;20612;-57
2023/04/09 16:29:03;;;;;;;;;;;;;;;;;;5082583;28;19947;-57
2023/04/09 16:31:29;;;;;;;;;;;;;;;;;;5081105;28;19923;-57
2023/04/09 16:33:55;;;;;;;;;;;;;;;;;;5072312;28;20715;-62
2023/04/09 16:36:20;;;;;;;;;;;;;;;;;;5088986;28;19916;-57